Time;durP1;ratioP1;P1;durP2;ratioP2;P2;SDS_P1;SDS_P2;PMS_P1;PMS_P2;Temp;Humidity;BMP_temperature;BMP_pressure;BME280_temperature;BME280_humidity;BME280_pressure;Samples;Min_cycle;Max_cycle;Signal;HPM_P1;HPM_P2
2021/10/18 00:02:18;;;;;;;1.30;0.47;;;;;;;-145.64;100.00;65708.53;5041952;28;20202;-66
2021/10/18 00:04:46;;;;;;;0.73;0.43;;;;;;;-145.64;100.00;65708.53;5048124;28;20198;-65
2021/10/18 00:07:15;;;;;;;1.10;0.70;;;;;;;-145.64;100.00;65708.53;5047968;28;20699;-66
2021/10/18 00:09:43;;;;;;;0.53;0.53;;;;;;;-145.64;100.00;65708.53;5046248;28;20254;-66
2021/10/18 00:12:11;;;;;;;0.60;0.50;;;;;;;-145.64;100.00;65708.53;5047861;28;20205;-65
2021/10/18 00:14:41;;;;;;;0.30;0.30;;;;;;;-145.64;100.00;65708.53;5048874;28;20230;-66
2021/10/18 00:17:09;;;;;;;2.83;0.70;;;;;;;-145.64;100.00;65708.53;5048758;28;20863;-65
2021/10/18 00:19:37;;;;;;;0.67;0.50;;;;;;;-145.64;100.00;65708.53;5040409;28;20645;-65
2021/10/18 00:22:06;;;;;;;1.30;0.60;;;;;;;-145.64;100.00;65708.53;5048880;28;20212;-66
2021/10/18 00:24:34;;;;;;;2.07;0.57;;;;;;;-145.64;100.00;65708.53;5048186;28;20209;-65
2021/10/18 00:27:02;;;;;;;0.33;0.33;;;;;;;-145.64;100.00;65708.53;5048957;28;20713;-66
2021/10/18 00:29:30;;;;;;;0.60;0.60;;;;;;;-145.64;100.00;65708.53;5047890;28;20205;-66
2021/10/18 00:31:59;;;;;;;0.50;0.50;;;;;;;-145.64;100.00;65708.53;5049215;28;20209;-66
2021/10/18 00:34:28;;;;;;;0.83;0.80;;;;;;;-145.64;100.00;65708.53;5046582;28;20239;-68
2021/10/18 00:36:56;;;;;;;0.30;0.30;;;;;;;-145.64;100.00;65708.53;5038226;28;20605;-66
2021/10/18 00:39:24;;;;;;;0.83;0.57;;;;;;;-145.64;100.00;65708.53;5040057;28;20200;-66
2021/10/18 00:41:52;;;;;;;0.50;0.50;;;;;;;-145.64;100.00;65708.53;5040268;28;20201;-67
2021/10/18 00:44:20;;;;;;;0.30;0.30;;;;;;;-145.64;100.00;65708.53;5036463;28;20250;-67
2021/10/18 00:46:48;;;;;;;0.50;0.50;;;;;;;-145.64;100.00;65708.53;5037819;28;20218;-67
2021/10/18 00:49:18;;;;;;;0.47;0.47;;;;;;;-145.64;100.00;65708.53;5039894;28;20206;-66
2021/10/18 00:51:46;;;;;;;1.37;0.47;;;;;;;-145.64;100.00;65708.53;5041604;28;20202;-66
2021/10/18 00:54:14;;;;;;;0.40;0.40;;;;;;;-145.64;100.00;65708.53;5041464;28;20199;-66
2021/10/18 00:56:43;;;;;;;0.20;0.20;;;;;;;-145.64;100.00;65708.53;5034887;28;20190;-66
2021/10/18 00:59:12;;;;;;;1.70;0.63;;;;;;;-145.64;100.00;65708.53;5038543;28;20244;-66
2021/10/18 01:01:41;;;;;;;0.80;0.40;;;;;;;-145.64;100.00;65708.53;5036952;28;20194;-66
2021/10/18 01:04:10;;;;;;;0.50;0.50;;;;;;;-145.64;100.00;65708.53;5046369;28;20203;-70
2021/10/18 01:06:39;;;;;;;1.37;0.73;;;;;;;-145.64;100.00;65708.53;5044990;28;20817;-70
2021/10/18 01:09:08;;;;;;;0.43;0.37;;;;;;;-145.64;100.00;65708.53;5043321;28;20431;-71
2021/10/18 01:11:36;;;;;;;3.07;0.37;;;;;;;-145.64;100.00;65708.53;5047303;28;20198;-71
2021/10/18 01:14:04;;;;;;;0.30;0.30;;;;;;;-145.64;100.00;65708.53;5050405;28;20217;-71
2021/10/18 01:16:32;;;;;;;0.60;0.60;;;;;;;-145.64;100.00;65708.53;5049499;28;20192;-70
2021/10/18 01:19:10;;;;;;;0.53;0.40;;;;;;;-145.64;100.00;65708.53;5049811;28;20195;-70
2021/10/18 01:21:40;;;;;;;0.50;0.50;;;;;;;-145.64;100.00;65708.53;5048757;28;20193;-70
2021/10/18 01:24:08;;;;;;;2.53;0.50;;;;;;;-145.64;100.00;65708.53;5049321;28;20726;-70
2021/10/18 01:26:37;;;;;;;0.50;0.50;;;;;;;-145.64;100.00;65708.53;5048217;28;20214;-70
2021/10/18 01:29:05;;;;;;;1.30;0.40;;;;;;;-145.64;100.00;65708.53;5048833;28;20594;-70
2021/10/18 01:31:33;;;;;;;1.20;0.40;;;;;;;-145.64;100.00;65708.53;5050445;28;20205;-71
2021/10/18 01:34:02;;;;;;;0.53;0.50;;;;;;;-145.64;100.00;65708.53;5049738;28;20197;-70
2021/10/18 01:36:30;;;;;;;0.57;0.57;;;;;;;-145.64;100.00;65708.53;5050315;28;20199;-70
2021/10/18 01:39:00;;;;;;;0.30;0.30;;;;;;;-145.64;100.00;65708.53;5050581;28;20209;-70
2021/10/18 01:41:28;;;;;;;1.27;0.60;;;;;;;-145.64;100.00;65708.53;5050318;28;20207;-71
2021/10/18 01:43:56;;;;;;;1.17;0.40;;;;;;;-145.64;100.00;65708.53;5050344;28;20204;-70
2021/10/18 01:46:24;;;;;;;0.50;0.50;;;;;;;-145.64;100.00;65708.53;5050332;28;20217;-70
2021/10/18 01:48:52;;;;;;;0.60;0.60;;;;;;;-145.64;100.00;65708.53;5050374;28;20194;-71
2021/10/18 01:51:20;;;;;;;2.67;0.50;;;;;;;-145.64;100.00;65708.53;5047777;28;20261;-70
2021/10/18 01:53:49;;;;;;;0.20;0.20;;;;;;;-145.64;100.00;65708.53;5048905;28;20233;-71
2021/10/18 01:56:18;;;;;;;1.57;0.50;;;;;;;-145.64;100.00;65708.53;5049403;28;20677;-70
2021/10/18 01:58:46;;;;;;;0.57;0.50;;;;;;;-145.64;100.00;65708.53;5050086;28;20208;-70
2021/10/18 02:01:14;;;;;;;0.87;0.60;;;;;;;-145.64;100.00;65708.53;5049535;28;20193;-70
2021/10/18 02:03:43;;;;;;;0.30;0.30;;;;;;;-145.64;100.00;65708.53;5051008;28;20266;-70
2021/10/18 02:06:12;;;;;;;0.60;0.60;;;;;;;-145.64;100.00;65708.53;5082389;28;20562;-70
2021/10/18 02:08:40;;;;;;;0.50;0.50;;;;;;;-145.64;100.00;65708.53;5050340;28;20194;-70
2021/10/18 02:11:10;;;;;;;0.73;0.73;;;;;;;-145.64;100.00;65708.53;5049911;28;20721;-70
2021/10/18 02:13:39;;;;;;;4.93;4.43;;;;;;;-145.64;100.00;65708.53;5050427;28;20186;-70
2021/10/18 02:16:08;;;;;;;3.23;0.83;;;;;;;-145.64;100.00;65708.53;5049662;28;20609;-70
2021/10/18 02:18:36;;;;;;;2.17;1.40;;;;;;;-145.64;100.00;65708.53;5050208;28;20658;-70
2021/10/18 02:21:04;;;;;;;3.43;0.60;;;;;;;-145.64;100.00;65708.53;5047215;28;20194;-70
2021/10/18 02:23:33;;;;;;;1.00;1.00;;;;;;;-145.64;100.00;65708.53;5050029;28;20202;-70
2021/10/18 02:26:01;;;;;;;0.50;0.50;;;;;;;-145.64;100.00;65708.53;5050305;28;20575;-70
2021/10/18 02:28:29;;;;;;;0.50;0.50;;;;;;;-145.64;100.00;65708.53;5049886;28;20659;-70
2021/10/18 02:30:58;;;;;;;0.23;0.23;;;;;;;-145.64;100.00;65708.53;5036191;28;20600;-70
2021/10/18 02:33:27;;;;;;;24.97;22.77;;;;;;;-145.64;100.00;65708.53;5046979;28;20268;-70
2021/10/18 02:35:55;;;;;;;0.53;0.53;;;;;;;-145.64;100.00;65708.53;5048568;28;20206;-70
2021/10/18 02:38:23;;;;;;;0.77;0.57;;;;;;;-145.64;100.00;65708.53;5049715;28;20413;-70
2021/10/18 02:40:51;;;;;;;2.80;2.57;;;;;;;-145.64;100.00;65708.53;5049877;28;20202;-70
2021/10/18 02:43:20;;;;;;;1.00;1.00;;;;;;;-145.64;100.00;65708.53;5049446;28;20202;-70
2021/10/18 02:45:50;;;;;;;1.03;0.87;;;;;;;-145.64;100.00;65708.53;5049783;28;20228;-71
2021/10/18 02:48:19;;;;;;;4.53;2.90;;;;;;;-145.64;100.00;65708.53;5049232;28;20229;-70
2021/10/18 02:50:48;;;;;;;3.80;0.70;;;;;;;-145.64;100.00;65708.53;5047790;28;20198;-70
2021/10/18 02:53:20;;;;;;;0.30;0.30;;;;;;;-145.64;100.00;65708.53;5049324;28;20194;-70
2021/10/18 02:55:49;;;;;;;1.17;0.57;;;;;;;-145.64;100.00;65708.53;5048645;28;20255;-71
2021/10/18 02:58:17;;;;;;;0.40;0.40;;;;;;;-145.64;100.00;65708.53;5033367;28;20195;-69
2021/10/18 03:00:45;;;;;;;0.50;0.50;;;;;;;-145.64;100.00;65708.53;5040881;28;20596;-69
2021/10/18 03:03:13;;;;;;;1.23;0.60;;;;;;;-145.64;100.00;65708.53;5041818;28;20210;-69
2021/10/18 03:05:43;;;;;;;0.33;0.33;;;;;;;-145.64;100.00;65708.53;5047553;28;20213;-69
2021/10/18 03:08:11;;;;;;;0.87;0.53;;;;;;;-145.64;100.00;65708.53;5047119;28;20213;-69
2021/10/18 03:10:43;;;;;;;0.87;0.50;;;;;;;-145.64;100.00;65708.53;5050829;28;20508;-69
2021/10/18 03:13:14;;;;;;;0.50;0.33;;;;;;;-145.64;100.00;65708.53;5050065;28;20206;-69
2021/10/18 03:15:42;;;;;;;0.50;0.50;;;;;;;-145.64;100.00;65708.53;5049444;28;20251;-69
2021/10/18 03:18:11;;;;;;;2.20;0.60;;;;;;;-145.64;100.00;65708.53;5048979;28;20580;-69
2021/10/18 03:20:39;;;;;;;4.73;0.60;;;;;;;-145.64;100.00;65708.53;5047711;28;20194;-69
2021/10/18 03:23:08;;;;;;;3.87;0.53;;;;;;;-145.64;100.00;65708.53;5048734;28;20204;-69
2021/10/18 03:25:37;;;;;;;0.30;0.30;;;;;;;-145.64;100.00;65708.53;5040152;28;20194;-69
2021/10/18 03:28:08;;;;;;;0.93;0.47;;;;;;;-145.64;100.00;65708.53;5048345;28;20849;-69
2021/10/18 03:30:36;;;;;;;1.37;0.37;;;;;;;-145.64;100.00;65708.53;5042484;28;20205;-69
2021/10/18 03:33:05;;;;;;;0.90;0.57;;;;;;;-145.64;100.00;65708.53;5047397;28;20194;-69
2021/10/18 03:35:33;;;;;;;1.33;0.40;;;;;;;-145.64;100.00;65708.53;5048077;28;20272;-69
2021/10/18 03:38:01;;;;;;;0.67;0.30;;;;;;;-145.64;100.00;65708.53;5044616;28;20213;-69
2021/10/18 03:40:31;;;;;;;0.40;0.40;;;;;;;-145.64;100.00;65708.53;5046874;28;20724;-69
2021/10/18 03:43:01;;;;;;;0.60;0.47;;;;;;;-145.64;100.00;65708.53;5045246;28;20210;-69
2021/10/18 03:45:29;;;;;;;1.83;0.30;;;;;;;-145.64;100.00;65708.53;5040668;28;20198;-69
2021/10/18 03:47:57;;;;;;;0.50;0.43;;;;;;;-145.64;100.00;65708.53;5042813;28;20253;-67
2021/10/18 03:50:26;;;;;;;7.97;7.33;;;;;;;-145.64;100.00;65708.53;5037730;28;20202;-68
2021/10/18 03:52:55;;;;;;;43.93;28.37;;;;;;;-145.64;100.00;65708.53;5033105;28;20854;-68
2021/10/18 03:55:23;;;;;;;4.30;3.30;;;;;;;-145.64;100.00;65708.53;5035068;28;20544;-68
2021/10/18 03:57:53;;;;;;;3.70;2.83;;;;;;;-145.64;100.00;65708.53;5037470;28;20208;-68
2021/10/18 04:00:22;;;;;;;2.00;1.73;;;;;;;-145.64;100.00;65708.53;5048107;28;20277;-68
2021/10/18 04:02:50;;;;;;;1.67;1.20;;;;;;;-145.64;100.00;65708.53;5046938;28;20510;-68
2021/10/18 04:05:19;;;;;;;13.10;1.33;;;;;;;-145.64;100.00;65708.53;5045323;28;20260;-68
2021/10/18 04:07:48;;;;;;;1.13;0.70;;;;;;;-145.64;100.00;65708.53;5044573;28;20719;-67
2021/10/18 04:10:18;;;;;;;0.90;0.90;;;;;;;-145.64;100.00;65708.53;5046414;28;20292;-67
2021/10/18 04:12:46;;;;;;;1.13;0.90;;;;;;;-145.64;100.00;65708.53;5048311;28;20294;-67
2021/10/18 04:15:16;;;;;;;4.90;0.87;;;;;;;-145.64;100.00;65708.53;5051762;28;20201;-67
2021/10/18 04:17:44;;;;;;;1.90;0.60;;;;;;;-145.64;100.00;65708.53;5047817;28;20191;-68
2021/10/18 04:20:13;;;;;;;1.33;0.30;;;;;;;-145.64;100.00;65708.53;5045105;28;20208;-67
2021/10/18 04:22:46;;;;;;;5.70;1.60;;;;;;;-145.64;100.00;65708.53;5047825;28;20224;-68
2021/10/18 04:25:14;;;;;;;0.70;0.53;;;;;;;-145.64;100.00;65708.53;5043463;28;20204;-68
2021/10/18 04:27:42;;;;;;;0.93;0.63;;;;;;;-145.64;100.00;65708.53;5040964;28;20778;-68
2021/10/18 04:30:11;;;;;;;1.33;0.60;;;;;;;-145.64;100.00;65708.53;5039135;28;20206;-68
2021/10/18 04:32:41;;;;;;;0.30;0.30;;;;;;;-145.64;100.00;65708.53;5043809;28;20406;-68
2021/10/18 04:35:09;;;;;;;0.50;0.50;;;;;;;-145.64;100.00;65708.53;5042070;28;20218;-68
2021/10/18 04:37:38;;;;;;;0.83;0.60;;;;;;;-145.64;100.00;65708.53;5040445;28;20209;-69
2021/10/18 04:40:08;;;;;;;3.30;0.60;;;;;;;-145.64;100.00;65708.53;5041146;28;20343;-68
2021/10/18 04:42:36;;;;;;;1.50;0.30;;;;;;;-145.64;100.00;65708.53;5038931;28;20665;-68
2021/10/18 04:45:05;;;;;;;0.70;0.60;;;;;;;-145.64;100.00;65708.53;5039863;28;20535;-69
2021/10/18 04:47:33;;;;;;;0.60;0.60;;;;;;;-145.64;100.00;65708.53;5045485;28;20210;-69
2021/10/18 04:50:03;;;;;;;1.23;0.40;;;;;;;-145.64;100.00;65708.53;5045367;28;20584;-69
2021/10/18 04:52:31;;;;;;;1.03;0.27;;;;;;;-145.64;100.00;65708.53;5047195;28;20677;-69
2021/10/18 04:54:59;;;;;;;0.40;0.40;;;;;;;-145.64;100.00;65708.53;5044383;28;20704;-69
2021/10/18 04:57:27;;;;;;;0.93;0.40;;;;;;;-145.64;100.00;65708.53;5042105;28;20205;-68
2021/10/18 04:59:55;;;;;;;1.57;0.60;;;;;;;-145.64;100.00;65708.53;5048179;28;20680;-68
2021/10/18 05:02:23;;;;;;;0.67;0.33;;;;;;;-145.64;100.00;65708.53;5045643;28;20570;-68
2021/10/18 05:04:52;;;;;;;0.40;0.40;;;;;;;-145.64;100.00;65708.53;5060006;28;20211;-68
2021/10/18 05:07:21;;;;;;;1.43;0.50;;;;;;;-145.64;100.00;65708.53;5047612;28;20209;-69
2021/10/18 05:09:49;;;;;;;3.17;0.60;;;;;;;-145.64;100.00;65708.53;5047475;28;20228;-69
2021/10/18 05:12:18;;;;;;;1.13;0.50;;;;;;;-145.64;100.00;65708.53;5047253;28;20617;-69
2021/10/18 05:14:46;;;;;;;3.77;0.70;;;;;;;-145.64;100.00;65708.53;5046131;28;20194;-69
2021/10/18 05:17:14;;;;;;;0.67;0.30;;;;;;;-145.64;100.00;65708.53;5048396;28;20201;-69
2021/10/18 05:19:42;;;;;;;1.53;0.40;;;;;;;-145.64;100.00;65708.53;5045441;28;20641;-69
2021/10/18 05:22:10;;;;;;;0.20;0.20;;;;;;;-145.64;100.00;65708.53;5045488;28;20194;-69
2021/10/18 05:24:40;;;;;;;0.97;0.50;;;;;;;-145.64;100.00;65708.53;5041183;28;20669;-69
2021/10/18 05:27:08;;;;;;;0.97;0.73;;;;;;;-145.64;100.00;65708.53;5045580;28;20618;-69
2021/10/18 05:29:36;;;;;;;1999.90;985.30;;;;;;;-145.64;100.00;65708.53;5041426;28;20931;-69
2021/10/18 05:32:05;;;;;;;26.27;21.90;;;;;;;-145.64;100.00;65708.53;5036826;28;20209;-69
2021/10/18 05:34:34;;;;;;;6.50;5.90;;;;;;;-145.64;100.00;65708.53;5048544;28;20224;-70
2021/10/18 05:37:02;;;;;;;2.30;2.17;;;;;;;-145.64;100.00;65708.53;5050311;28;20198;-69
2021/10/18 05:39:30;;;;;;;2.87;1.37;;;;;;;-145.64;100.00;65708.53;5047624;28;20194;-69
2021/10/18 05:41:59;;;;;;;1.50;1.10;;;;;;;-145.64;100.00;65708.53;5045559;28;20221;-69
2021/10/18 05:44:27;;;;;;;1.80;1.00;;;;;;;-145.64;100.00;65708.53;5049718;28;20229;-69
2021/10/18 05:46:55;;;;;;;2.10;0.80;;;;;;;-145.64;100.00;65708.53;5050170;28;20228;-68
2021/10/18 05:49:24;;;;;;;2.30;1.20;;;;;;;-145.64;100.00;65708.53;5037634;28;20218;-69
2021/10/18 05:51:52;;;;;;;1.00;1.00;;;;;;;-145.64;100.00;65708.53;5044792;28;20860;-69
2021/10/18 05:54:20;;;;;;;5.10;1.53;;;;;;;-145.64;100.00;65708.53;5043757;28;20206;-69
2021/10/18 05:56:49;;;;;;;2.70;0.80;;;;;;;-145.64;100.00;65708.53;5044790;28;20206;-69
2021/10/18 05:59:20;;;;;;;3.63;0.83;;;;;;;-145.64;100.00;65708.53;5048851;28;20190;-69
2021/10/18 06:01:48;;;;;;;1.47;0.80;;;;;;;-145.64;100.00;65708.53;5038022;28;20630;-68
2021/10/18 06:04:16;;;;;;;6.37;0.57;;;;;;;-145.64;100.00;65708.53;5041500;28;20222;-68
2021/10/18 06:06:44;;;;;;;0.70;0.70;;;;;;;-145.64;100.00;65708.53;5031619;28;20230;-69
2021/10/18 06:09:14;;;;;;;0.83;0.60;;;;;;;-145.64;100.00;65708.53;5044889;28;20669;-69
2021/10/18 06:11:42;;;;;;;2.40;0.80;;;;;;;-145.64;100.00;65708.53;5032096;28;20724;-69
2021/10/18 06:14:10;;;;;;;7.20;0.77;;;;;;;-145.64;100.00;65708.53;5044298;28;20562;-69
2021/10/18 06:16:40;;;;;;;0.80;0.63;;;;;;;-145.64;100.00;65708.53;5043418;28;20267;-69
2021/10/18 06:19:08;;;;;;;3.07;0.60;;;;;;;-145.64;100.00;65708.53;5049067;28;20206;-69
2021/10/18 06:21:36;;;;;;;1.40;0.50;;;;;;;-145.64;100.00;65708.53;5048495;28;20209;-69
2021/10/18 06:24:05;;;;;;;1.00;0.50;;;;;;;-145.64;100.00;65708.53;5049897;28;20208;-69
2021/10/18 06:26:33;;;;;;;1.70;0.53;;;;;;;-145.64;100.00;65708.53;5050178;28;20195;-69
2021/10/18 06:29:02;;;;;;;0.83;0.70;;;;;;;-145.64;100.00;65708.53;5010563;28;20226;-69
2021/10/18 06:31:30;;;;;;;0.97;0.70;;;;;;;-145.64;100.00;65708.53;5009814;28;20199;-69
2021/10/18 06:33:59;;;;;;;1.17;0.80;;;;;;;-145.64;100.00;65708.53;5010244;28;20950;-69
2021/10/18 06:36:27;;;;;;;0.43;0.43;;;;;;;-145.64;100.00;65708.53;5009649;28;20206;-69
2021/10/18 06:38:55;;;;;;;2.63;0.40;;;;;;;-145.64;100.00;65708.53;5010017;28;20210;-69
2021/10/18 06:41:24;;;;;;;0.57;0.57;;;;;;;-145.64;100.00;65708.53;5009534;28;20637;-66
2021/10/18 06:43:52;;;;;;;1.23;0.57;;;;;;;-145.64;100.00;65708.53;5010129;28;20195;-66
2021/10/18 06:46:20;;;;;;;0.60;0.60;;;;;;;-145.64;100.00;65708.53;5009343;28;20874;-69
2021/10/18 06:48:48;;;;;;;0.53;0.50;;;;;;;-145.64;100.00;65708.53;5010075;28;20544;-69
2021/10/18 06:51:18;;;;;;;1.97;0.60;;;;;;;-145.64;100.00;65708.53;5008131;28;20208;-68
2021/10/18 06:53:49;;;;;;;0.97;0.50;;;;;;;-145.64;100.00;65708.53;5009812;28;20196;-69
2021/10/18 06:56:17;;;;;;;1.47;0.67;;;;;;;-145.64;100.00;65708.53;5008926;28;20225;-70
2021/10/18 06:58:45;;;;;;;0.97;0.40;;;;;;;-145.64;100.00;65708.53;5009867;28;20206;-69
2021/10/18 07:01:13;;;;;;;1.23;0.47;;;;;;;-145.64;100.00;65708.53;5009204;28;20576;-70
2021/10/18 07:03:42;;;;;;;0.83;0.40;;;;;;;-145.64;100.00;65708.53;5009528;28;20195;-69
2021/10/18 07:06:10;;;;;;;0.70;0.50;;;;;;;-145.64;100.00;65708.53;5008996;28;20690;-70
2021/10/18 07:08:39;;;;;;;0.93;0.60;;;;;;;-145.64;100.00;65708.53;5008457;28;20594;-69
2021/10/18 07:11:08;;;;;;;0.60;0.60;;;;;;;-145.64;100.00;65708.53;5008997;28;20650;-70
2021/10/18 07:13:36;;;;;;;0.43;0.43;;;;;;;-145.64;100.00;65708.53;5009659;28;20211;-69
2021/10/18 07:16:05;;;;;;;0.23;0.23;;;;;;;-145.64;100.00;65708.53;5009456;28;20235;-70
2021/10/18 07:18:33;;;;;;;173.63;73.33;;;;;;;-145.64;100.00;65708.53;5009340;28;20653;-70
2021/10/18 07:21:01;;;;;;;31.77;17.43;;;;;;;-145.64;100.00;65708.53;5008425;28;20196;-70
2021/10/18 07:23:29;;;;;;;9.17;4.33;;;;;;;-145.64;100.00;65708.53;5008506;28;20203;-70
2021/10/18 07:26:01;;;;;;;3.80;2.20;;;;;;;-145.64;100.00;65708.53;5009476;28;20218;-69
2021/10/18 07:28:30;;;;;;;0.90;0.83;;;;;;;-145.64;100.00;65708.53;5039762;28;20572;-70
2021/10/18 07:30:59;;;;;;;1.87;0.77;;;;;;;-145.64;100.00;65708.53;5048714;28;20234;-70
2021/10/18 07:33:27;;;;;;;0.70;0.60;;;;;;;-145.64;100.00;65708.53;5048295;28;20888;-70
2021/10/18 07:36:02;;;;;;;5.83;3.27;;;;;;;-145.64;100.00;65708.53;5048325;28;20732;-70
2021/10/18 07:38:31;;;;;;;0.90;0.50;;;;;;;-145.64;100.00;65708.53;5048216;28;20205;-70
2021/10/18 07:41:00;;;;;;;0.77;0.63;;;;;;;-145.64;100.00;65708.53;5048392;28;20665;-70
2021/10/18 07:43:28;;;;;;;1.00;1.00;;;;;;;-145.64;100.00;65708.53;5048055;28;20217;-69
2021/10/18 07:45:56;;;;;;;0.60;0.60;;;;;;;-145.64;100.00;65708.53;5048177;28;20298;-70
2021/10/18 07:48:24;;;;;;;1.00;0.57;;;;;;;-145.64;100.00;65708.53;5047811;28;20219;-68
2021/10/18 07:50:52;;;;;;;0.53;0.40;;;;;;;-145.64;100.00;65708.53;5048471;28;20693;-68
2021/10/18 07:53:21;;;;;;;0.47;0.43;;;;;;;-145.64;100.00;65708.53;5046333;28;20210;-68
2021/10/18 07:55:49;;;;;;;0.50;0.50;;;;;;;-145.64;100.00;65708.53;5048081;28;20208;-68
2021/10/18 07:58:22;;;;;;;0.50;0.43;;;;;;;-145.64;100.00;65708.53;5047954;28;20207;-68
2021/10/18 08:00:51;;;;;;;1.03;0.70;;;;;;;-145.64;100.00;65708.53;5048339;28;20229;-68
2021/10/18 08:03:20;;;;;;;0.40;0.40;;;;;;;-145.64;100.00;65708.53;5047737;28;20222;-68
2021/10/18 08:05:49;;;;;;;0.67;0.60;;;;;;;-145.64;100.00;65708.53;5047947;28;20679;-68
2021/10/18 08:08:21;;;;;;;1.07;0.63;;;;;;;-145.64;100.00;65708.53;5047716;28;20200;-68
2021/10/18 08:10:51;;;;;;;2.60;0.33;;;;;;;-145.64;100.00;65708.53;5048092;28;20265;-68
2021/10/18 08:13:19;;;;;;;0.73;0.47;;;;;;;-145.64;100.00;65708.53;5047301;28;20682;-68
2021/10/18 08:15:49;;;;;;;0.70;0.33;;;;;;;-145.64;100.00;65708.53;5047900;28;20196;-68
2021/10/18 08:18:18;;;;;;;0.93;0.50;;;;;;;-145.64;100.00;65708.53;5047419;28;20204;-68
2021/10/18 08:20:47;;;;;;;0.50;0.50;;;;;;;-145.64;100.00;65708.53;5047854;28;20571;-68
2021/10/18 08:23:15;;;;;;;1.63;0.53;;;;;;;-145.64;100.00;65708.53;5044616;28;20584;-68
2021/10/18 08:25:43;;;;;;;0.30;0.30;;;;;;;-145.64;100.00;65708.53;5047699;28;20186;-68
2021/10/18 08:28:12;;;;;;;1.17;0.50;;;;;;;-145.64;100.00;65708.53;5047030;28;20243;-68
2021/10/18 08:30:41;;;;;;;2.57;0.50;;;;;;;-145.64;100.00;65708.53;5047788;28;20620;-68
2021/10/18 08:33:11;;;;;;;0.30;0.30;;;;;;;-145.64;100.00;65708.53;5047580;28;20255;-68
2021/10/18 08:35:40;;;;;;;0.60;0.33;;;;;;;-145.64;100.00;65708.53;5047599;28;20588;-68
2021/10/18 08:38:36;;;;;;;0.90;0.50;;;;;;;-145.64;100.00;65708.53;5047637;28;20223;-68
2021/10/18 08:41:09;;;;;;;0.60;0.30;;;;;;;-145.64;100.00;65708.53;5047639;28;20212;-68
2021/10/18 08:46:23;;;;;;;0.60;0.40;;;;;;;-145.64;100.00;65708.53;5047115;28;20189;-68
2021/10/18 08:48:55;;;;;;;0.67;0.60;;;;;;;-145.64;100.00;65708.53;5062916;28;20234;-68
2021/10/18 08:51:25;;;;;;;0.83;0.30;;;;;;;-145.64;100.00;65708.53;5047088;28;20234;-68
2021/10/18 08:53:54;;;;;;;0.40;0.40;;;;;;;-145.64;100.00;65708.53;5045388;28;20667;-68
2021/10/18 08:56:22;;;;;;;1.47;0.40;;;;;;;-145.64;100.00;65708.53;5045907;28;20198;-68
2021/10/18 08:58:51;;;;;;;0.93;0.60;;;;;;;-145.64;100.00;65708.53;5047450;28;20234;-68
2021/10/18 09:01:19;;;;;;;1.97;1.20;;;;;;;-145.64;100.00;65708.53;5046662;28;20190;-68
2021/10/18 09:03:47;;;;;;;1.83;1.30;;;;;;;-145.64;100.00;65708.53;5047340;28;20621;-68
2021/10/18 09:06:18;;;;;;;5.50;1.33;;;;;;;-145.64;100.00;65708.53;5045452;28;20198;-68
2021/10/18 09:08:48;;;;;;;3.77;2.00;;;;;;;-145.64;100.00;65708.53;5047219;28;20544;-68
2021/10/18 09:11:19;;;;;;;1.70;1.00;;;;;;;-145.64;100.00;65708.53;5046741;28;20241;-68
2021/10/18 09:13:57;;;;;;;0.43;0.43;;;;;;;-145.64;100.00;65708.53;5047115;28;20190;-68
2021/10/18 09:16:28;;;;;;;0.77;0.77;;;;;;;-145.64;100.00;65708.53;5046576;28;20205;-68
2021/10/18 09:19:06;;;;;;;0.70;0.70;;;;;;;-145.64;100.00;65708.53;5047156;28;20610;-68
2021/10/18 09:21:38;;;;;;;3.27;0.87;;;;;;;-145.64;100.00;65708.53;5046901;28;20204;-69
2021/10/18 09:24:09;;;;;;;1.43;0.57;;;;;;;-145.64;100.00;65708.53;5045984;28;20291;-68
2021/10/18 09:26:39;;;;;;;4.93;1.33;;;;;;;-145.64;100.00;65708.53;5046975;28;20219;-67
2021/10/18 09:29:09;;;;;;;1.77;0.60;;;;;;;-145.64;100.00;65708.53;5047211;28;20547;-68
2021/10/18 09:31:39;;;;;;;2.03;1.70;;;;;;;-145.64;100.00;65708.53;5049353;28;20232;-69
2021/10/18 09:34:11;;;;;;;0.40;0.40;;;;;;;-145.64;100.00;65708.53;5051135;28;20192;-68
2021/10/18 09:36:44;;;;;;;2.07;1.60;;;;;;;-145.64;100.00;65708.53;5050682;28;20210;-69
2021/10/18 09:39:25;;;;;;;9.40;5.60;;;;;;;-145.64;100.00;65708.53;5065773;28;20677;-68
2021/10/18 09:42:04;;;;;;;3.80;0.77;;;;;;;-145.64;100.00;65708.53;5050763;28;20197;-68
2021/10/18 10:51:31;;;;;;;1.37;0.90;;;;;;;-145.64;100.00;65708.53;5049386;28;20649;-69
2021/10/18 10:54:03;;;;;;;5.63;0.97;;;;;;;-145.64;100.00;65708.53;5048207;28;20640;-69
2021/10/18 10:56:38;;;;;;;6.93;1.37;;;;;;;-145.64;100.00;65708.53;5048836;28;20193;-69
2021/10/18 10:59:18;;;;;;;1.87;0.70;;;;;;;-145.64;100.00;65708.53;5049272;28;20199;-69
2021/10/18 11:01:57;;;;;;;3.13;0.70;;;;;;;-145.64;100.00;65708.53;5049267;28;20236;-69
2021/10/18 11:04:48;;;;;;;3.70;1.10;;;;;;;-145.64;100.00;65708.53;5048568;28;20235;-69
2021/10/18 11:07:20;;;;;;;3.60;0.57;;;;;;;-145.64;100.00;65708.53;5048879;28;20204;-69
2021/10/18 11:09:50;;;;;;;5.07;0.73;;;;;;;-145.64;100.00;65708.53;5049194;28;20235;-69
2021/10/18 11:12:29;;;;;;;2.33;0.50;;;;;;;-145.64;100.00;65708.53;5048655;28;20590;-69
2021/10/18 11:15:00;;;;;;;5.77;1.40;;;;;;;-145.64;100.00;65708.53;5049084;28;20229;-70
2021/10/18 11:17:32;;;;;;;1.83;0.80;;;;;;;-145.64;100.00;65708.53;5048543;28;20297;-69
2021/10/18 11:20:04;;;;;;;2.83;0.60;;;;;;;-145.64;100.00;65708.53;5049025;28;20611;-69
2021/10/18 11:22:35;;;;;;;1.77;0.60;;;;;;;-145.64;100.00;65708.53;5046584;28;20550;-70
2021/10/18 11:25:06;;;;;;;0.73;0.73;;;;;;;-145.64;100.00;65708.53;5049243;28;20207;-70
2021/10/18 11:27:36;;;;;;;0.53;0.53;;;;;;;-145.64;100.00;65708.53;5034405;28;20234;-69
2021/10/18 11:30:08;;;;;;;0.80;0.60;;;;;;;-145.64;100.00;65708.53;5049047;28;20209;-70
2021/10/18 11:32:37;;;;;;;1.33;0.80;;;;;;;-145.64;100.00;65708.53;5046926;28;20238;-70
2021/10/18 11:35:11;;;;;;;1.63;0.60;;;;;;;-145.64;100.00;65708.53;5081004;28;20216;-70
2021/10/18 11:38:01;;;;;;;4.17;0.60;;;;;;;-145.64;100.00;65708.53;5047955;28;20613;-70
2021/10/18 11:40:32;;;;;;;1.93;0.60;;;;;;;-145.64;100.00;65708.53;5048067;28;20482;-70
2021/10/18 11:43:03;;;;;;;0.97;0.70;;;;;;;-145.64;100.00;65708.53;5048509;28;20212;-70
2021/10/18 11:45:34;;;;;;;2.43;0.50;;;;;;;-145.64;100.00;65708.53;5048203;28;20597;-70
2021/10/18 11:48:09;;;;;;;1.03;0.60;;;;;;;-145.64;100.00;65708.53;5048195;28;20660;-70
2021/10/18 11:50:38;;;;;;;0.60;0.53;;;;;;;-145.64;100.00;65708.53;5047962;28;20475;-70
2021/10/18 11:53:12;;;;;;;0.97;0.70;;;;;;;-145.64;100.00;65708.53;5047075;28;20802;-70
2021/10/18 11:55:42;;;;;;;3.73;0.70;;;;;;;-145.64;100.00;65708.53;5048201;28;20197;-70
2021/10/18 11:58:10;;;;;;;1.77;0.60;;;;;;;-145.64;100.00;65708.53;5048134;28;20209;-70
2021/10/18 12:00:42;;;;;;;1.03;0.63;;;;;;;-145.64;100.00;65708.53;5047549;28;20221;-70
2021/10/18 12:03:15;;;;;;;0.90;0.47;;;;;;;-145.64;100.00;65708.53;5047976;28;20198;-70
2021/10/18 12:05:45;;;;;;;1.57;0.77;;;;;;;-145.64;100.00;65708.53;5048287;28;20202;-70
2021/10/18 12:08:14;;;;;;;3.70;0.70;;;;;;;-145.64;100.00;65708.53;5047858;28;20401;-70
2021/10/18 12:10:44;;;;;;;2.07;0.60;;;;;;;-145.64;100.00;65708.53;5047978;28;20201;-70
2021/10/18 12:13:24;;;;;;;4.10;0.70;;;;;;;-145.64;100.00;65708.53;5048222;28;20693;-70
2021/10/18 12:16:09;;;;;;;243.03;215.60;;;;;;;-145.64;100.00;65708.53;5047834;28;20633;-70
2021/10/18 12:18:46;;;;;;;4.93;4.43;;;;;;;-145.64;100.00;65708.53;5047417;28;20194;-70
2021/10/18 12:21:19;;;;;;;1.87;1.37;;;;;;;-145.64;100.00;65708.53;5047871;28;20217;-70
2021/10/18 12:23:50;;;;;;;5.77;1.10;;;;;;;-145.64;100.00;65708.53;5045867;28;20214;-70
2021/10/18 12:26:19;;;;;;;2.30;0.83;;;;;;;-145.64;100.00;65708.53;5047496;28;20205;-71
2021/10/18 12:28:52;;;;;;;3.20;1.27;;;;;;;-145.64;100.00;65708.53;5047462;28;20234;-70
2021/10/18 12:31:29;;;;;;;1.90;1.00;;;;;;;-145.64;100.00;65708.53;5047407;28;20225;-71